createdAt,value
2023-05-20T00:02:50.544Z,5.20
2023-05-20T00:06:56.181Z,5.20
2023-05-20T00:10:59.106Z,5.40
2023-05-20T00:15:04.433Z,4.60
2023-05-20T00:19:07.767Z,4.70
2023-05-20T00:23:12.174Z,5.20
2023-05-20T00:27:15.106Z,4.60
2023-05-20T00:31:18.193Z,4.07
2023-05-20T00:35:21.670Z,4.90
2023-05-20T00:39:26.737Z,4.90
2023-05-20T00:43:30.288Z,5.03
2023-05-20T00:48:01.584Z,4.40
2023-05-20T00:52:05.741Z,4.77
2023-05-20T00:56:27.522Z,4.07
2023-05-20T01:01:02.232Z,4.50
2023-05-20T01:05:05.893Z,4.37
2023-05-20T01:09:09.339Z,4.43
2023-05-20T01:13:47.083Z,4.80
2023-05-20T01:17:53.474Z,4.57
2023-05-20T01:21:58.827Z,4.53
2023-05-20T01:26:03.060Z,4.10
2023-05-20T01:30:09.145Z,4.40
2023-05-20T01:34:12.530Z,4.20
2023-05-20T01:38:20.408Z,4.93
2023-05-20T01:42:27.864Z,4.73
2023-05-20T01:46:34.083Z,4.70
2023-05-20T01:50:37.109Z,4.23
2023-05-20T01:54:40.399Z,4.20
2023-05-20T01:58:44.853Z,4.80
2023-05-20T02:02:48.172Z,4.27
2023-05-20T02:06:51.354Z,4.00
2023-05-20T02:10:55.062Z,4.40
2023-05-20T02:15:00.946Z,4.47
2023-05-20T02:19:04.832Z,4.13
2023-05-20T02:23:08.633Z,4.27
2023-05-20T02:27:13.226Z,4.73
2023-05-20T02:31:22.959Z,4.40
2023-05-20T02:35:25.969Z,4.37
2023-05-20T02:39:29.710Z,4.43
2023-05-20T02:43:33.108Z,4.87
2023-05-20T02:47:40.891Z,4.60
2023-05-20T02:51:43.983Z,4.40
2023-05-20T02:55:47.979Z,4.23
2023-05-20T02:59:52.497Z,4.23
2023-05-20T03:03:58.484Z,4.23
2023-05-20T03:08:02.262Z,4.37
2023-05-20T03:12:05.504Z,4.70
2023-05-20T03:16:09.033Z,4.70
2023-05-20T03:20:17.783Z,4.30
2023-05-20T03:24:20.697Z,4.60
2023-05-20T03:28:24.338Z,4.30
2023-05-20T03:32:27.663Z,4.50
2023-05-20T03:36:32.454Z,4.30
2023-05-20T03:40:36.040Z,4.13
2023-05-20T03:44:40.002Z,4.30
2023-05-20T03:48:43.495Z,4.57
2023-05-20T03:52:48.808Z,4.10
2023-05-20T03:56:56.573Z,4.70
2023-05-20T04:01:01.158Z,4.27
2023-05-20T04:05:10.222Z,4.43
2023-05-20T04:09:19.805Z,4.40
2023-05-20T04:13:25.294Z,4.00
2023-05-20T04:17:30.248Z,4.07
2023-05-20T04:21:39.056Z,4.67
2023-05-20T04:25:44.663Z,4.47
2023-05-20T04:29:48.645Z,4.83
2023-05-20T04:33:54.952Z,4.40
2023-05-20T04:37:59.394Z,3.93
2023-05-20T04:42:04.866Z,3.87
2023-05-20T04:46:08.931Z,3.90
2023-05-20T04:50:13.554Z,4.10
2023-05-20T04:54:20.401Z,3.93
2023-05-20T04:58:25.943Z,4.10
2023-05-20T05:02:29.854Z,4.10
2023-05-20T05:06:33.346Z,4.00
2023-05-20T05:10:37.211Z,3.73
2023-05-20T05:14:44.799Z,4.10
2023-05-20T05:18:48.292Z,3.93
2023-05-20T05:22:51.982Z,3.40
2023-05-20T05:26:56.601Z,3.57
2023-05-20T05:31:02.328Z,3.90
2023-05-20T05:35:08.133Z,3.67
2023-05-20T05:39:12.132Z,3.77
2023-05-20T05:43:16.240Z,3.50
2023-05-20T05:47:22.635Z,3.07
2023-05-20T05:51:28.111Z,3.07
2023-05-20T05:55:38.119Z,2.77
2023-05-20T05:59:41.633Z,3.27
2023-05-20T06:03:46.793Z,3.33
2023-05-20T06:07:50.336Z,3.30
2023-05-20T06:11:54.869Z,3.10
2023-05-20T06:15:57.801Z,3.27
2023-05-20T06:20:05.878Z,2.90
2023-05-20T06:24:08.721Z,2.90
2023-05-20T06:28:13.079Z,2.80
2023-05-20T06:32:16.658Z,3.27
2023-05-20T06:36:21.061Z,3.40
2023-05-20T06:40:24.275Z,2.77
2023-05-20T06:44:27.318Z,3.30
2023-05-20T06:48:43.965Z,3.00
2023-05-20T06:52:48.750Z,3.17
2023-05-20T06:56:52.686Z,3.10
2023-05-20T07:00:57.758Z,3.20
2023-05-20T07:05:02.479Z,3.00
2023-05-20T07:09:07.780Z,3.00
2023-05-20T07:13:10.771Z,3.10
2023-05-20T07:17:14.155Z,2.90
2023-05-20T07:21:18.042Z,3.33
2023-05-20T07:25:41.192Z,2.97
2023-05-20T07:29:44.601Z,3.50
2023-05-20T07:33:48.536Z,3.10
2023-05-20T07:37:52.277Z,3.00
2023-05-20T07:41:56.774Z,3.27
2023-05-20T07:46:01.237Z,3.07
2023-05-20T07:50:05.888Z,3.40
2023-05-20T07:54:11.820Z,3.20
2023-05-20T07:58:16.051Z,2.97
2023-05-20T08:02:19.772Z,3.43
2023-05-20T08:06:24.414Z,3.07
2023-05-20T08:10:27.793Z,2.50
2023-05-20T08:14:33.402Z,3.13
2023-05-20T08:18:37.799Z,2.90
2023-05-20T08:22:41.572Z,3.17
2023-05-20T08:26:44.737Z,2.80
2023-05-20T08:30:49.474Z,2.57
2023-05-20T08:34:52.263Z,2.70
2023-05-20T08:38:55.755Z,2.77
2023-05-20T08:42:59.439Z,2.70
2023-05-20T08:47:04.770Z,2.83
2023-05-20T08:51:10.551Z,2.80
2023-05-20T08:55:22.787Z,2.67
2023-05-20T08:59:28.559Z,2.43
2023-05-20T09:03:34.156Z,2.35
2023-05-20T09:07:37.094Z,2.22
2023-05-20T09:11:41.239Z,2.50
2023-05-20T09:15:44.342Z,2.20
2023-05-20T09:19:51.029Z,2.47
2023-05-20T09:23:54.185Z,2.13
2023-05-20T09:27:58.003Z,2.13
2023-05-20T09:32:03.124Z,2.10
2023-05-20T09:36:09.660Z,2.27
2023-05-20T09:40:15.227Z,2.00
2023-05-20T09:44:18.359Z,1.97
2023-05-20T09:48:22.308Z,2.43
2023-05-20T09:52:28.811Z,2.20
2023-05-20T09:56:32.910Z,2.23
2023-05-20T10:00:35.943Z,2.17
2023-05-20T10:04:46.410Z,1.90
2023-05-20T10:09:13.630Z,2.23
2023-05-20T10:13:29.231Z,2.25
2023-05-20T10:17:41.033Z,1.97
2023-05-20T10:21:44.240Z,2.08
2023-05-20T10:25:53.984Z,2.00
2023-05-20T10:29:58.322Z,1.90
2023-05-20T10:34:02.616Z,2.38
2023-05-20T10:38:10.389Z,2.33
2023-05-20T10:42:15.614Z,2.17
2023-05-20T10:46:31.228Z,2.58
2023-05-20T10:50:41.627Z,2.20
2023-05-20T10:54:46.730Z,2.25
2023-05-20T10:58:54.835Z,2.17
2023-05-20T11:02:58.623Z,2.20
2023-05-20T11:07:01.667Z,2.27
2023-05-20T11:11:05.850Z,2.33
2023-05-20T11:15:12.998Z,2.60
2023-05-20T11:19:17.003Z,1.80
2023-05-20T11:23:23.410Z,2.40
2023-05-20T11:27:32.648Z,2.25
2023-05-20T11:31:52.156Z,2.15
2023-05-20T11:36:08.742Z,2.40
2023-05-20T11:40:27.114Z,1.92
2023-05-20T11:44:33.231Z,1.92
2023-05-20T11:48:37.496Z,1.90
2023-05-20T11:52:40.454Z,1.80
2023-05-20T11:56:49.369Z,1.88
2023-05-20T12:00:59.111Z,1.92
2023-05-20T12:05:06.995Z,1.80
2023-05-20T12:09:10.394Z,2.95
2023-05-20T12:13:14.431Z,2.10
2023-05-20T12:17:21.734Z,1.92
2023-05-20T12:21:27.641Z,3.03
2023-05-20T12:25:31.972Z,1.80
2023-05-20T12:29:36.946Z,2.00
2023-05-20T12:33:40.277Z,1.83
2023-05-20T12:37:46.080Z,1.80
2023-05-20T12:41:49.642Z,1.75
2023-05-20T12:45:58.632Z,1.80
2023-05-20T12:50:02.401Z,1.80
2023-05-20T12:54:07.192Z,1.50
2023-05-20T12:58:10.455Z,2.00
2023-05-20T13:02:13.844Z,1.92
2023-05-20T13:06:16.793Z,1.67
2023-05-20T13:10:23.414Z,1.60
2023-05-20T13:14:27.885Z,2.20
2023-05-20T13:18:30.930Z,1.83
2023-05-20T13:22:33.950Z,2.00
2023-05-20T13:26:38.242Z,2.20
2023-05-20T13:30:42.735Z,1.80
2023-05-20T13:34:46.943Z,1.95
2023-05-20T13:38:59.130Z,1.70
2023-05-20T13:43:03.305Z,1.90
2023-05-20T13:47:16.784Z,2.07
2023-05-20T13:51:36.596Z,1.95
2023-05-20T13:55:59.694Z,2.43
2023-05-20T14:00:15.073Z,2.00
2023-05-20T14:04:44.932Z,2.10
2023-05-20T14:09:09.141Z,1.87
2023-05-20T14:13:19.248Z,2.17
2023-05-20T14:17:31.616Z,1.90
2023-05-20T14:21:34.755Z,2.10
2023-05-20T14:25:47.266Z,2.20
2023-05-20T14:29:59.168Z,1.90
2023-05-20T14:34:07.485Z,2.00
2023-05-20T14:38:23.130Z,2.40
2023-05-20T14:42:31.890Z,2.80
2023-05-20T14:46:44.733Z,1.73
2023-05-20T14:51:01.750Z,1.70
2023-05-20T14:55:26.162Z,2.10
2023-05-20T14:59:44.460Z,1.90
2023-05-20T15:03:47.669Z,2.60
2023-05-20T15:08:03.005Z,2.13
2023-05-20T15:12:28.839Z,1.90
2023-05-20T15:16:57.686Z,2.03
2023-05-20T15:21:24.507Z,2.97
2023-05-20T15:25:58.371Z,2.10
2023-05-20T15:30:26.996Z,2.13
2023-05-20T15:35:02.898Z,2.00
2023-05-20T15:39:39.701Z,2.23
2023-05-20T15:43:57.750Z,1.97
2023-05-20T15:48:41.196Z,2.20
2023-05-20T15:53:40.624Z,2.33
2023-05-20T15:58:22.969Z,2.13
2023-05-20T16:03:08.300Z,2.17
2023-05-20T16:07:37.256Z,2.13
2023-05-20T16:12:04.563Z,2.20
2023-05-20T16:16:29.512Z,2.20
2023-05-20T16:20:53.600Z,2.20
2023-05-20T16:24:57.865Z,2.20
2023-05-20T16:29:00.766Z,2.20
2023-05-20T16:33:09.591Z,2.50
2023-05-20T16:37:18.336Z,2.10
2023-05-20T16:41:47.716Z,2.10
2023-05-20T16:45:50.580Z,2.30
2023-05-20T16:50:03.754Z,2.53
2023-05-20T16:54:08.247Z,2.50
2023-05-20T16:58:19.036Z,2.50
2023-05-20T17:02:22.128Z,2.10
2023-05-20T17:06:25.372Z,2.57
2023-05-20T17:10:28.902Z,2.30
2023-05-20T17:14:33.706Z,2.83
2023-05-20T17:18:37.135Z,2.47
2023-05-20T17:22:40.757Z,3.30
2023-05-20T17:26:49.483Z,3.17
2023-05-20T17:30:53.696Z,2.90
2023-05-20T17:35:08.377Z,2.23
2023-05-20T17:39:13.723Z,2.80
2023-05-20T17:43:16.609Z,3.37
2023-05-20T17:47:21.329Z,2.83
2023-05-20T17:51:25.122Z,2.93
2023-05-20T17:55:29.069Z,3.20
2023-05-20T17:59:33.814Z,15.93
2023-05-20T18:03:39.905Z,3.63
2023-05-20T18:07:43.280Z,2.77
2023-05-20T18:11:47.133Z,2.83
2023-05-20T18:15:51.020Z,3.30
2023-05-20T18:19:55.516Z,2.37
2023-05-20T18:23:59.493Z,3.77
2023-05-20T18:28:03.100Z,3.13
2023-05-20T18:32:07.033Z,3.07
2023-05-20T18:36:11.549Z,2.90
2023-05-20T18:40:15.047Z,2.40
2023-05-20T18:44:23.756Z,2.80
2023-05-20T18:48:27.563Z,2.80
2023-05-20T18:52:33.909Z,3.43
2023-05-20T18:56:38.110Z,3.00
2023-05-20T19:00:41.539Z,3.17
2023-05-20T19:05:05.512Z,2.80
2023-05-20T19:09:11.040Z,3.30
2023-05-20T19:13:14.109Z,3.00
2023-05-20T19:17:21.235Z,3.30
2023-05-20T19:21:24.918Z,2.80
2023-05-20T19:25:29.765Z,2.90
2023-05-20T19:29:38.792Z,3.00
2023-05-20T19:33:43.958Z,3.27
2023-05-20T19:37:48.410Z,4.17
2023-05-20T19:41:54.151Z,3.47
2023-05-20T19:45:57.464Z,3.53
2023-05-20T19:50:02.726Z,3.13
2023-05-20T19:54:06.664Z,3.93
2023-05-20T19:58:15.159Z,3.80
2023-05-20T20:02:18.241Z,3.30
2023-05-20T20:06:34.242Z,3.23
2023-05-20T20:10:51.089Z,3.83
2023-05-20T20:15:08.947Z,5.23
2023-05-20T20:19:11.856Z,4.63
2023-05-20T20:23:14.950Z,4.03
2023-05-20T20:27:19.147Z,4.20
2023-05-20T20:31:24.485Z,3.90
2023-05-20T20:35:27.895Z,8.23
2023-05-20T20:39:30.798Z,8.20
2023-05-20T20:43:34.761Z,5.93
2023-05-20T20:47:40.937Z,4.17
2023-05-20T20:51:45.401Z,4.77
2023-05-20T20:55:48.455Z,4.80
2023-05-20T20:59:53.901Z,5.00
2023-05-20T21:03:58.609Z,4.40
2023-05-20T21:08:13.277Z,5.57
2023-05-20T21:12:17.533Z,5.37
2023-05-20T21:16:21.400Z,5.03
2023-05-20T21:20:25.885Z,5.13
2023-05-20T21:24:28.962Z,5.13
2023-05-20T21:28:32.332Z,5.10
2023-05-20T21:32:35.777Z,4.23
2023-05-20T21:36:42.834Z,5.13
2023-05-20T21:40:45.578Z,6.97
2023-05-20T21:44:48.726Z,5.47
2023-05-20T21:49:07.039Z,6.07
2023-05-20T21:53:21.711Z,6.13
2023-05-20T21:57:25.169Z,5.60
2023-05-20T22:01:34.225Z,5.60
2023-05-20T22:05:49.801Z,4.63
2023-05-20T22:09:58.306Z,6.10
2023-05-20T22:14:02.132Z,5.43
2023-05-20T22:18:07.612Z,5.53
2023-05-20T22:22:11.807Z,5.10
2023-05-20T22:26:20.715Z,5.10
2023-05-20T22:30:23.767Z,4.80
2023-05-20T22:34:27.356Z,4.60
2023-05-20T22:38:37.634Z,4.60
2023-05-20T22:42:42.378Z,4.57
2023-05-20T22:46:46.099Z,3.93
2023-05-20T22:50:56.087Z,4.83
2023-05-20T22:55:01.770Z,5.10
2023-05-20T22:59:07.910Z,4.17
2023-05-20T23:03:12.095Z,5.07
2023-05-20T23:07:18.984Z,4.67
2023-05-20T23:11:21.902Z,4.67
2023-05-20T23:15:27.712Z,4.27
2023-05-20T23:19:34.147Z,4.40
2023-05-20T23:23:37.283Z,4.40
2023-05-20T23:27:42.114Z,4.10
2023-05-20T23:31:48.237Z,4.53
2023-05-20T23:35:53.115Z,5.00
2023-05-20T23:39:57.035Z,4.80
2023-05-20T23:44:00.009Z,4.50
2023-05-20T23:48:04.334Z,5.37
2023-05-20T23:52:07.973Z,4.43
2023-05-20T23:56:11.495Z,4.93
